Game Details

[ Leader Board ] [ Players ] [ Opponents ] [ Guilds ] [ Areas ]

Game Details for: Guytou

Game Progress

Quest Completed on Day
Mushroom Stew 5
Dave and Heidi 12
Arena 1 24
Chaak Mine 39
Mountain Pass 44

Full Telemetry

Time Game Day Game Hour Game Minute Type Details Value Extra Zone X Y Credits Guild
5/11/2020 8:25:25 PM 45 19 49 Save 0 2 Village4 7 17 1131 Mercenary
5/11/2020 8:24:29 PM 45 18 42 Arena Win 2 Village4 18 7 1131 Mercenary
5/11/2020 8:24:29 PM 45 18 42 Combat Lv 3 Gazer 0 Win Village4 18 7 1056 Mercenary
5/11/2020 8:20:14 PM 45 17 27 Arena Win 1 Village4 18 7 1987 Mercenary
5/11/2020 8:20:14 PM 45 17 27 Combat Lv 2 Bear 0 Win Village4 18 7 1927 Mercenary
5/11/2020 8:16:36 PM 45 1 45 Combat Lv 2 Gazer 0 Win Wilderness2 27 11 1834 Mercenary
5/11/2020 8:14:51 PM 45 0 0 Daily Peter 3210 Wilderness2 16 5 1726 Mercenary
5/11/2020 8:10:41 PM 44 11 3 Equip Exquisite Heavy Leather Cap 365 Village4 27 10 1270 Mercenary
5/11/2020 8:10:20 PM 44 11 3 Equip Exquisite Kinetic Field 345 Village4 27 10 1270 Mercenary
5/11/2020 8:08:29 PM 44 10 58 Commodity Fuel 58 Sell Village4 15 15 2388 Mercenary
5/11/2020 8:08:28 PM 44 10 58 Commodity Fuel 62 Sell Village4 15 15 2295 Mercenary
5/11/2020 8:07:14 PM 44 2 36 Quest Mountain Pass 0 Wilderness2 37 6 2246 Mercenary
5/11/2020 8:07:06 PM 44 2 34 Combat Lv 5 Slime Mold 0 Win MountainRange1 7 12 2246 Mercenary
5/11/2020 8:05:29 PM 44 2 12 Combat Lv 5 Slime Mold 0 Win MountainRange2 3 11 2146 Mercenary
5/11/2020 8:04:32 PM 44 2 10 Combat Lv 3 Cave Toad 0 Win MountainRange2 8 17 2048 Mercenary
5/11/2020 8:01:20 PM 44 2 2 Combat Lv 2 Gazer 0 Win MountainRange2 14 3 1953 Mercenary
5/11/2020 7:58:43 PM 44 1 49 Combat Lv 1 Worg 0 Win Wilderness1 5 3 1837 Mercenary
5/11/2020 7:58:22 PM 44 0 0 Daily Peter 3072 Wilderness1 10 12 1837 Mercenary
5/11/2020 7:52:16 PM 43 3 13 Combat Lv 2 Wasp 0 Win Wilderness1 13 11 2406 Mercenary
5/11/2020 7:51:09 PM 43 1 38 Combat Lv 5 Slime Mold 0 Win MountainRange2 32 13 2385 Mercenary
5/11/2020 7:48:57 PM 43 1 32 Combat Lv 1 Gazer 0 Win MountainRange3 26 15 2286 Mercenary
5/11/2020 7:47:09 PM 43 1 28 Combat Lv 5 Slime Mold 0 Win MountainRange3 29 4 2184 Mercenary
5/11/2020 7:45:03 PM 43 1 5 Combat Lv 2 Gazer 0 Win MountainRange3 15 18 2103 Mercenary
5/11/2020 7:42:50 PM 43 0 54 Combat Lv 2 Cave Toad 0 Win MountainRange2 6 15 1994 Mercenary
5/11/2020 7:39:12 PM 43 0 52 Combat Lv 2 Gazer 0 Win MountainRange2 15 18 1917 Mercenary
5/11/2020 7:35:28 PM 43 0 37 Combat Lv 1 Cave Toad 0 Win MountainRange1 23 17 1780 Mercenary
5/11/2020 7:31:59 PM 43 0 0 Daily Peter 3072 Wilderness1 3 8 1712 Mercenary
5/3/2020 1:22:09 PM 1 8 12 Combat Lv 1 Chaak Warrior 0 Die InsectCave 24 13 0 None
5/3/2020 1:21:32 PM 1 8 10 Combat Chaak Larva 0 Win InsectBasement 10 5 0 None
5/3/2020 1:20:41 PM 1 8 6 Combat Chaak Larva 0 Win InsectBasement 23 13 0 None